sensor_id;sensor_type;location;lat;lon;timestamp;pressure;altitude;pressure_sealevel;temperature;humidity
57250;BME280;43102;52.014;-0.680;2023-03-01T00:00:00;102442;;;5.99;80.97
57250;BME280;43102;52.014;-0.680;2023-03-01T00:01:01;102442;;;5.99;80.97
57250;BME280;43102;52.014;-0.680;2023-03-01T00:02:00;102442;;;5.99;80.97
57250;BME280;43102;52.014;-0.680;2023-03-01T00:03:00;102442;;;5.99;80.97
57250;BME280;43102;52.014;-0.680;2023-03-01T00:04:00;102451;;;6.20;80.04
57250;BME280;43102;52.014;-0.680;2023-03-01T00:05:00;102451;;;6.20;80.04
57250;BME280;43102;52.014;-0.680;2023-03-01T00:06:00;102451;;;6.20;80.04
57250;BME280;43102;52.014;-0.680;2023-03-01T00:07:00;102451;;;6.20;80.04
57250;BME280;43102;52.014;-0.680;2023-03-01T00:08:00;102451;;;6.20;80.04
57250;BME280;43102;52.014;-0.680;2023-03-01T00:09:00;102453;;;6.21;79.65
57250;BME280;43102;52.014;-0.680;2023-03-01T00:10:00;102453;;;6.21;79.65
57250;BME280;43102;52.014;-0.680;2023-03-01T00:12:00;102453;;;6.21;79.65
57250;BME280;43102;52.014;-0.680;2023-03-01T00:13:00;102453;;;6.21;79.65
57250;BME280;43102;52.014;-0.680;2023-03-01T00:14:00;102456;;;5.96;80.53
57250;BME280;43102;52.014;-0.680;2023-03-01T00:15:00;102456;;;5.96;80.53
57250;BME280;43102;52.014;-0.680;2023-03-01T00:16:09;102456;;;5.96;80.53
57250;BME280;43102;52.014;-0.680;2023-03-01T00:17:00;102456;;;5.96;80.53
57250;BME280;43102;52.014;-0.680;2023-03-01T00:18:00;102456;;;5.96;80.53
57250;BME280;43102;52.014;-0.680;2023-03-01T00:19:00;102459;;;5.83;81.01
57250;BME280;43102;52.014;-0.680;2023-03-01T00:20:00;102459;;;5.83;81.01
57250;BME280;43102;52.014;-0.680;2023-03-01T00:21:00;102459;;;5.83;81.01
57250;BME280;43102;52.014;-0.680;2023-03-01T00:22:00;102459;;;5.83;81.01
57250;BME280;43102;52.014;-0.680;2023-03-01T00:23:00;102459;;;5.83;81.01
57250;BME280;43102;52.014;-0.680;2023-03-01T00:24:00;102465;;;5.95;80.61
57250;BME280;43102;52.014;-0.680;2023-03-01T00:25:00;102465;;;5.95;80.61
57250;BME280;43102;52.014;-0.680;2023-03-01T00:26:00;102465;;;5.95;80.61
57250;BME280;43102;52.014;-0.680;2023-03-01T00:27:00;102465;;;5.95;80.61
57250;BME280;43102;52.014;-0.680;2023-03-01T00:28:00;102465;;;5.95;80.61
57250;BME280;43102;52.014;-0.680;2023-03-01T00:29:00;102454;;;5.96;80.41
57250;BME280;43102;52.014;-0.680;2023-03-01T00:30:00;102454;;;5.96;80.41
57250;BME280;43102;52.014;-0.680;2023-03-01T00:31:04;102454;;;5.96;80.41
57250;BME280;43102;52.014;-0.680;2023-03-01T00:32:00;102454;;;5.96;80.41
57250;BME280;43102;52.014;-0.680;2023-03-01T00:33:00;102454;;;5.96;80.41
57250;BME280;43102;52.014;-0.680;2023-03-01T00:34:02;102471;;;5.92;79.99
57250;BME280;43102;52.014;-0.680;2023-03-01T00:35:00;102471;;;5.92;79.99
57250;BME280;43102;52.014;-0.680;2023-03-01T00:36:00;102471;;;5.92;79.99
57250;BME280;43102;52.014;-0.680;2023-03-01T00:37:00;102471;;;5.92;79.99
57250;BME280;43102;52.014;-0.680;2023-03-01T00:38:00;102471;;;5.92;79.99
57250;BME280;43102;52.014;-0.680;2023-03-01T00:39:00;102455;;;5.82;79.99
57250;BME280;43102;52.014;-0.680;2023-03-01T00:40:00;102455;;;5.82;79.99
57250;BME280;43102;52.014;-0.680;2023-03-01T00:41:04;102455;;;5.82;79.99
57250;BME280;43102;52.014;-0.680;2023-03-01T00:42:00;102455;;;5.82;79.99
57250;BME280;43102;52.014;-0.680;2023-03-01T00:43:00;102455;;;5.82;79.99
57250;BME280;43102;52.014;-0.680;2023-03-01T00:44:00;102459;;;5.96;79.31
57250;BME280;43102;52.014;-0.680;2023-03-01T00:45:00;102459;;;5.96;79.31
57250;BME280;43102;52.014;-0.680;2023-03-01T00:46:00;102459;;;5.96;79.31
57250;BME280;43102;52.014;-0.680;2023-03-01T00:47:00;102459;;;5.96;79.31
57250;BME280;43102;52.014;-0.680;2023-03-01T00:48:00;102459;;;5.96;79.31
57250;BME280;43102;52.014;-0.680;2023-03-01T00:49:00;102451;;;6.08;78.81
57250;BME280;43102;52.014;-0.680;2023-03-01T00:50:00;102451;;;6.08;78.81
57250;BME280;43102;52.014;-0.680;2023-03-01T00:51:09;102451;;;6.08;78.81
57250;BME280;43102;52.014;-0.680;2023-03-01T00:52:00;102451;;;6.08;78.81
57250;BME280;43102;52.014;-0.680;2023-03-01T00:53:00;102451;;;6.08;78.81
57250;BME280;43102;52.014;-0.680;2023-03-01T00:54:00;102456;;;5.72;79.97
57250;BME280;43102;52.014;-0.680;2023-03-01T00:55:00;102456;;;5.72;79.97
57250;BME280;43102;52.014;-0.680;2023-03-01T00:56:00;102456;;;5.72;79.97
57250;BME280;43102;52.014;-0.680;2023-03-01T00:57:00;102456;;;5.72;79.97
57250;BME280;43102;52.014;-0.680;2023-03-01T00:58:00;102456;;;5.72;79.97
57250;BME280;43102;52.014;-0.680;2023-03-01T00:59:00;102447;;;5.75;80.23
57250;BME280;43102;52.014;-0.680;2023-03-01T01:00:00;102447;;;5.75;80.23
57250;BME280;43102;52.014;-0.680;2023-03-01T01:01:00;102447;;;5.75;80.23
57250;BME280;43102;52.014;-0.680;2023-03-01T01:02:00;102447;;;5.75;80.23
57250;BME280;43102;52.014;-0.680;2023-03-01T01:03:00;102447;;;5.75;80.23
57250;BME280;43102;52.014;-0.680;2023-03-01T01:04:01;102446;;;5.75;79.87
57250;BME280;43102;52.014;-0.680;2023-03-01T01:05:00;102446;;;5.75;79.87
57250;BME280;43102;52.014;-0.680;2023-03-01T01:06:00;102446;;;5.75;79.87
57250;BME280;43102;52.014;-0.680;2023-03-01T01:07:00;102446;;;5.75;79.87
57250;BME280;43102;52.014;-0.680;2023-03-01T01:08:00;102446;;;5.75;79.87
57250;BME280;43102;52.014;-0.680;2023-03-01T01:09:00;102450;;;5.67;80.49
57250;BME280;43102;52.014;-0.680;2023-03-01T01:10:00;102450;;;5.67;80.49
57250;BME280;43102;52.014;-0.680;2023-03-01T01:11:00;102450;;;5.67;80.49
57250;BME280;43102;52.014;-0.680;2023-03-01T01:12:00;102450;;;5.67;80.49
57250;BME280;43102;52.014;-0.680;2023-03-01T01:13:00;102450;;;5.67;80.49
57250;BME280;43102;52.014;-0.680;2023-03-01T01:14:00;102443;;;5.89;79.55
57250;BME280;43102;52.014;-0.680;2023-03-01T01:15:00;102443;;;5.89;79.55
57250;BME280;43102;52.014;-0.680;2023-03-01T01:16:00;102443;;;5.89;79.55
57250;BME280;43102;52.014;-0.680;2023-03-01T01:17:00;102443;;;5.89;79.55
57250;BME280;43102;52.014;-0.680;2023-03-01T01:18:00;102443;;;5.89;79.55
57250;BME280;43102;52.014;-0.680;2023-03-01T01:19:00;102439;;;5.80;78.59
57250;BME280;43102;52.014;-0.680;2023-03-01T01:20:00;102439;;;5.80;78.59
57250;BME280;43102;52.014;-0.680;2023-03-01T01:21:08;102439;;;5.80;78.59
57250;BME280;43102;52.014;-0.680;2023-03-01T01:22:00;102439;;;5.80;78.59
57250;BME280;43102;52.014;-0.680;2023-03-01T01:23:00;102439;;;5.80;78.59
57250;BME280;43102;52.014;-0.680;2023-03-01T01:24:00;102427;;;5.83;77.38
57250;BME280;43102;52.014;-0.680;2023-03-01T01:25:00;102427;;;5.83;77.38
57250;BME280;43102;52.014;-0.680;2023-03-01T01:26:04;102427;;;5.83;77.38
57250;BME280;43102;52.014;-0.680;2023-03-01T01:27:00;102427;;;5.83;77.38
57250;BME280;43102;52.014;-0.680;2023-03-01T01:28:00;102427;;;5.83;77.38
57250;BME280;43102;52.014;-0.680;2023-03-01T01:29:00;102425;;;5.79;76.63
57250;BME280;43102;52.014;-0.680;2023-03-01T01:30:00;102425;;;5.79;76.63
57250;BME280;43102;52.014;-0.680;2023-03-01T01:31:00;102425;;;5.79;76.63
57250;BME280;43102;52.014;-0.680;2023-03-01T01:32:00;102425;;;5.79;76.63
57250;BME280;43102;52.014;-0.680;2023-03-01T01:33:00;102425;;;5.79;76.63
57250;BME280;43102;52.014;-0.680;2023-03-01T01:34:00;102428;;;5.92;77.04
57250;BME280;43102;52.014;-0.680;2023-03-01T01:35:00;102428;;;5.92;77.04
57250;BME280;43102;52.014;-0.680;2023-03-01T01:36:00;102428;;;5.92;77.04
57250;BME280;43102;52.014;-0.680;2023-03-01T01:37:00;102428;;;5.92;77.04
57250;BME280;43102;52.014;-0.680;2023-03-01T01:38:00;102428;;;5.92;77.04
57250;BME280;43102;52.014;-0.680;2023-03-01T01:39:00;102428;;;5.92;77.49
57250;BME280;43102;52.014;-0.680;2023-03-01T01:40:00;102428;;;5.92;77.49
57250;BME280;43102;52.014;-0.680;2023-03-01T01:41:00;102428;;;5.92;77.49
57250;BME280;43102;52.014;-0.680;2023-03-01T01:42:00;102428;;;5.92;77.49
57250;BME280;43102;52.014;-0.680;2023-03-01T01:43:00;102428;;;5.92;77.49
57250;BME280;43102;52.014;-0.680;2023-03-01T01:45:32;102418;;;5.93;77.69
57250;BME280;43102;52.014;-0.680;2023-03-01T01:46:02;102418;;;5.93;77.69
57250;BME280;43102;52.014;-0.680;2023-03-01T01:47:00;102418;;;5.93;77.69
57250;BME280;43102;52.014;-0.680;2023-03-01T01:48:03;102418;;;5.93;77.69
57250;BME280;43102;52.014;-0.680;2023-03-01T01:49:01;102406;;;5.88;77.58
57250;BME280;43102;52.014;-0.680;2023-03-01T01:50:00;102406;;;5.88;77.58
57250;BME280;43102;52.014;-0.680;2023-03-01T01:51:00;102406;;;5.88;77.58
57250;BME280;43102;52.014;-0.680;2023-03-01T01:52:02;102406;;;5.88;77.58
57250;BME280;43102;52.014;-0.680;2023-03-01T01:53:00;102406;;;5.88;77.58
57250;BME280;43102;52.014;-0.680;2023-03-01T01:54:00;102406;;;5.99;77.08
57250;BME280;43102;52.014;-0.680;2023-03-01T01:55:02;102406;;;5.99;77.08
57250;BME280;43102;52.014;-0.680;2023-03-01T01:56:00;102406;;;5.99;77.08
57250;BME280;43102;52.014;-0.680;2023-03-01T01:57:01;102406;;;5.99;77.08
57250;BME280;43102;52.014;-0.680;2023-03-01T01:58:02;102406;;;5.99;77.08
57250;BME280;43102;52.014;-0.680;2023-03-01T01:59:00;102396;;;5.86;76.54
57250;BME280;43102;52.014;-0.680;2023-03-01T02:00:00;102396;;;5.86;76.54
57250;BME280;43102;52.014;-0.680;2023-03-01T02:01:00;102396;;;5.86;76.54
57250;BME280;43102;52.014;-0.680;2023-03-01T02:02:00;102396;;;5.86;76.54
57250;BME280;43102;52.014;-0.680;2023-03-01T02:03:02;102396;;;5.86;76.54
57250;BME280;43102;52.014;-0.680;2023-03-01T02:04:00;102400;;;6.00;75.84
57250;BME280;43102;52.014;-0.680;2023-03-01T02:05:02;102400;;;6.00;75.84
57250;BME280;43102;52.014;-0.680;2023-03-01T02:06:04;102400;;;6.00;75.84
57250;BME280;43102;52.014;-0.680;2023-03-01T02:07:01;102400;;;6.00;75.84
57250;BME280;43102;52.014;-0.680;2023-03-01T02:08:00;102400;;;6.00;75.84
57250;BME280;43102;52.014;-0.680;2023-03-01T02:09:02;102397;;;5.83;76.09
57250;BME280;43102;52.014;-0.680;2023-03-01T02:10:00;102397;;;5.83;76.09
57250;BME280;43102;52.014;-0.680;2023-03-01T02:11:00;102397;;;5.83;76.09
57250;BME280;43102;52.014;-0.680;2023-03-01T02:12:00;102397;;;5.83;76.09
57250;BME280;43102;52.014;-0.680;2023-03-01T02:13:00;102397;;;5.83;76.09
57250;BME280;43102;52.014;-0.680;2023-03-01T02:14:00;102393;;;5.94;76.09
57250;BME280;43102;52.014;-0.680;2023-03-01T02:15:00;102393;;;5.94;76.09
57250;BME280;43102;52.014;-0.680;2023-03-01T02:16:16;102393;;;5.94;76.09
57250;BME280;43102;52.014;-0.680;2023-03-01T02:17:00;102393;;;5.94;76.09
57250;BME280;43102;52.014;-0.680;2023-03-01T02:18:00;102393;;;5.94;76.09
57250;BME280;43102;52.014;-0.680;2023-03-01T02:19:00;102390;;;5.89;76.46
57250;BME280;43102;52.014;-0.680;2023-03-01T02:20:18;102390;;;5.89;76.46
57250;BME280;43102;52.014;-0.680;2023-03-01T02:21:19;102390;;;5.89;76.46
57250;BME280;43102;52.014;-0.680;2023-03-01T02:22:03;102390;;;5.89;76.46
57250;BME280;43102;52.014;-0.680;2023-03-01T02:23:00;102390;;;5.89;76.46
57250;BME280;43102;52.014;-0.680;2023-03-01T02:24:03;102384;;;5.83;77.43
57250;BME280;43102;52.014;-0.680;2023-03-01T02:25:10;102384;;;5.83;77.43
57250;BME280;43102;52.014;-0.680;2023-03-01T02:26:02;102384;;;5.83;77.43
57250;BME280;43102;52.014;-0.680;2023-03-01T02:27:00;102384;;;5.83;77.43
57250;BME280;43102;52.014;-0.680;2023-03-01T02:29:00;102383;;;5.85;77.65
57250;BME280;43102;52.014;-0.680;2023-03-01T02:30:00;102383;;;5.85;77.65
57250;BME280;43102;52.014;-0.680;2023-03-01T02:31:00;102383;;;5.85;77.65
57250;BME280;43102;52.014;-0.680;2023-03-01T02:32:00;102383;;;5.85;77.65
57250;BME280;43102;52.014;-0.680;2023-03-01T02:33:00;102383;;;5.85;77.65
57250;BME280;43102;52.014;-0.680;2023-03-01T02:34:00;102377;;;5.71;78.12
57250;BME280;43102;52.014;-0.680;2023-03-01T02:35:00;102377;;;5.71;78.12
57250;BME280;43102;52.014;-0.680;2023-03-01T02:36:00;102377;;;5.71;78.12
57250;BME280;43102;52.014;-0.680;2023-03-01T02:37:01;102377;;;5.71;78.12
57250;BME280;43102;52.014;-0.680;2023-03-01T02:38:00;102377;;;5.71;78.12
57250;BME280;43102;52.014;-0.680;2023-03-01T02:39:00;102366;;;5.78;78.32
57250;BME280;43102;52.014;-0.680;2023-03-01T02:40:02;102366;;;5.78;78.32
57250;BME280;43102;52.014;-0.680;2023-03-01T02:41:00;102366;;;5.78;78.32
57250;BME280;43102;52.014;-0.680;2023-03-01T02:42:00;102366;;;5.78;78.32
57250;BME280;43102;52.014;-0.680;2023-03-01T02:43:00;102366;;;5.78;78.32
57250;BME280;43102;52.014;-0.680;2023-03-01T02:44:00;102369;;;5.76;78.40
57250;BME280;43102;52.014;-0.680;2023-03-01T02:45:00;102369;;;5.76;78.40
57250;BME280;43102;52.014;-0.680;2023-03-01T02:46:05;102369;;;5.76;78.40
57250;BME280;43102;52.014;-0.680;2023-03-01T02:47:01;102369;;;5.76;78.40
57250;BME280;43102;52.014;-0.680;2023-03-01T02:48:00;102369;;;5.76;78.40
57250;BME280;43102;52.014;-0.680;2023-03-01T02:49:00;102365;;;5.77;78.60
57250;BME280;43102;52.014;-0.680;2023-03-01T02:50:00;102365;;;5.77;78.60
57250;BME280;43102;52.014;-0.680;2023-03-01T02:56:00;102356;;;5.65;79.27
57250;BME280;43102;52.014;-0.680;2023-03-01T02:57:00;102356;;;5.65;79.27
57250;BME280;43102;52.014;-0.680;2023-03-01T02:58:00;102356;;;5.65;79.27
57250;BME280;43102;52.014;-0.680;2023-03-01T02:59:00;102355;;;5.69;79.46
57250;BME280;43102;52.014;-0.680;2023-03-01T03:00:02;102355;;;5.69;79.46
57250;BME280;43102;52.014;-0.680;2023-03-01T03:01:00;102355;;;5.69;79.46
57250;BME280;43102;52.014;-0.680;2023-03-01T03:02:00;102355;;;5.69;79.46
57250;BME280;43102;52.014;-0.680;2023-03-01T03:03:00;102355;;;5.69;79.46
57250;BME280;43102;52.014;-0.680;2023-03-01T03:04:00;102346;;;5.72;79.68
57250;BME280;43102;52.014;-0.680;2023-03-01T03:05:00;102346;;;5.72;79.68
57250;BME280;43102;52.014;-0.680;2023-03-01T03:06:00;102346;;;5.72;79.68
57250;BME280;43102;52.014;-0.680;2023-03-01T03:07:00;102346;;;5.72;79.68
57250;BME280;43102;52.014;-0.680;2023-03-01T03:08:00;102346;;;5.72;79.68
57250;BME280;43102;52.014;-0.680;2023-03-01T03:09:00;102337;;;5.75;79.68
57250;BME280;43102;52.014;-0.680;2023-03-01T03:10:00;102337;;;5.75;79.68
57250;BME280;43102;52.014;-0.680;2023-03-01T03:11:00;102337;;;5.75;79.68
57250;BME280;43102;52.014;-0.680;2023-03-01T03:12:00;102337;;;5.75;79.68
57250;BME280;43102;52.014;-0.680;2023-03-01T03:13:01;102337;;;5.75;79.68
57250;BME280;43102;52.014;-0.680;2023-03-01T03:14:00;102327;;;5.73;79.82
57250;BME280;43102;52.014;-0.680;2023-03-01T03:15:00;102327;;;5.73;79.82
57250;BME280;43102;52.014;-0.680;2023-03-01T03:16:00;102327;;;5.73;79.82
57250;BME280;43102;52.014;-0.680;2023-03-01T03:17:00;102327;;;5.73;79.82
57250;BME280;43102;52.014;-0.680;2023-03-01T03:18:00;102327;;;5.73;79.82
57250;BME280;43102;52.014;-0.680;2023-03-01T03:19:00;102328;;;5.71;79.86
57250;BME280;43102;52.014;-0.680;2023-03-01T03:20:00;102328;;;5.71;79.86
57250;BME280;43102;52.014;-0.680;2023-03-01T03:21:00;102328;;;5.71;79.86
57250;BME280;43102;52.014;-0.680;2023-03-01T03:22:00;102328;;;5.71;79.86
57250;BME280;43102;52.014;-0.680;2023-03-01T03:23:00;102328;;;5.71;79.86
57250;BME280;43102;52.014;-0.680;2023-03-01T03:24:00;102329;;;5.75;79.92
57250;BME280;43102;52.014;-0.680;2023-03-01T03:25:00;102329;;;5.75;79.92
57250;BME280;43102;52.014;-0.680;2023-03-01T03:26:00;102329;;;5.75;79.92
57250;BME280;43102;52.014;-0.680;2023-03-01T03:27:00;102329;;;5.75;79.92
57250;BME280;43102;52.014;-0.680;2023-03-01T03:28:00;102329;;;5.75;79.92
57250;BME280;43102;52.014;-0.680;2023-03-01T03:29:00;102328;;;5.76;79.96
57250;BME280;43102;52.014;-0.680;2023-03-01T03:30:00;102328;;;5.76;79.96
57250;BME280;43102;52.014;-0.680;2023-03-01T03:31:00;102328;;;5.76;79.96
57250;BME280;43102;52.014;-0.680;2023-03-01T03:32:00;102328;;;5.76;79.96
57250;BME280;43102;52.014;-0.680;2023-03-01T03:33:00;102328;;;5.76;79.96
57250;BME280;43102;52.014;-0.680;2023-03-01T03:34:00;102320;;;5.72;80.17
57250;BME280;43102;52.014;-0.680;2023-03-01T03:35:00;102320;;;5.72;80.17
57250;BME280;43102;52.014;-0.680;2023-03-01T03:36:00;102320;;;5.72;80.17
57250;BME280;43102;52.014;-0.680;2023-03-01T03:37:00;102320;;;5.72;80.17
57250;BME280;43102;52.014;-0.680;2023-03-01T03:38:01;102320;;;5.72;80.17
57250;BME280;43102;52.014;-0.680;2023-03-01T03:39:00;102317;;;5.70;80.50
57250;BME280;43102;52.014;-0.680;2023-03-01T03:40:00;102317;;;5.70;80.50
57250;BME280;43102;52.014;-0.680;2023-03-01T03:41:01;102317;;;5.70;80.50
57250;BME280;43102;52.014;-0.680;2023-03-01T03:42:00;102317;;;5.70;80.50
57250;BME280;43102;52.014;-0.680;2023-03-01T03:43:00;102317;;;5.70;80.50
57250;BME280;43102;52.014;-0.680;2023-03-01T03:44:00;102315;;;5.65;80.81
57250;BME280;43102;52.014;-0.680;2023-03-01T03:45:00;102315;;;5.65;80.81
57250;BME280;43102;52.014;-0.680;2023-03-01T03:46:00;102315;;;5.65;80.81
57250;BME280;43102;52.014;-0.680;2023-03-01T03:47:00;102315;;;5.65;80.81
57250;BME280;43102;52.014;-0.680;2023-03-01T03:48:00;102315;;;5.65;80.81
57250;BME280;43102;52.014;-0.680;2023-03-01T03:49:00;102305;;;5.58;80.94
57250;BME280;43102;52.014;-0.680;2023-03-01T03:50:00;102305;;;5.58;80.94
57250;BME280;43102;52.014;-0.680;2023-03-01T03:51:00;102305;;;5.58;80.94
57250;BME280;43102;52.014;-0.680;2023-03-01T03:52:00;102305;;;5.58;80.94
57250;BME280;43102;52.014;-0.680;2023-03-01T03:53:00;102305;;;5.58;80.94
57250;BME280;43102;52.014;-0.680;2023-03-01T03:54:00;102297;;;5.54;81.15
57250;BME280;43102;52.014;-0.680;2023-03-01T03:55:00;102297;;;5.54;81.15
57250;BME280;43102;52.014;-0.680;2023-03-01T03:56:00;102297;;;5.54;81.15
57250;BME280;43102;52.014;-0.680;2023-03-01T03:57:00;102297;;;5.54;81.15
57250;BME280;43102;52.014;-0.680;2023-03-01T03:58:01;102297;;;5.54;81.15
57250;BME280;43102;52.014;-0.680;2023-03-01T03:59:00;102297;;;5.65;80.75
57250;BME280;43102;52.014;-0.680;2023-03-01T04:00:00;102297;;;5.65;80.75
57250;BME280;43102;52.014;-0.680;2023-03-01T04:01:00;102297;;;5.65;80.75
57250;BME280;43102;52.014;-0.680;2023-03-01T04:02:00;102297;;;5.65;80.75
57250;BME280;43102;52.014;-0.680;2023-03-01T04:03:00;102297;;;5.65;80.75
57250;BME280;43102;52.014;-0.680;2023-03-01T04:04:00;102301;;;5.60;81.05
57250;BME280;43102;52.014;-0.680;2023-03-01T04:05:00;102301;;;5.60;81.05
57250;BME280;43102;52.014;-0.680;2023-03-01T04:06:00;102301;;;5.60;81.05
57250;BME280;43102;52.014;-0.680;2023-03-01T04:07:00;102301;;;5.60;81.05
57250;BME280;43102;52.014;-0.680;2023-03-01T04:08:00;102301;;;5.60;81.05
57250;BME280;43102;52.014;-0.680;2023-03-01T04:09:00;102303;;;5.57;81.66
57250;BME280;43102;52.014;-0.680;2023-03-01T04:10:00;102303;;;5.57;81.66
57250;BME280;43102;52.014;-0.680;2023-03-01T04:11:01;102303;;;5.57;81.66
57250;BME280;43102;52.014;-0.680;2023-03-01T04:12:00;102303;;;5.57;81.66
57250;BME280;43102;52.014;-0.680;2023-03-01T04:13:00;102303;;;5.57;81.66
57250;BME280;43102;52.014;-0.680;2023-03-01T04:14:00;102295;;;5.59;81.84
57250;BME280;43102;52.014;-0.680;2023-03-01T04:15:02;102295;;;5.59;81.84
57250;BME280;43102;52.014;-0.680;2023-03-01T04:16:00;102295;;;5.59;81.84
57250;BME280;43102;52.014;-0.680;2023-03-01T04:17:00;102295;;;5.59;81.84
57250;BME280;43102;52.014;-0.680;2023-03-01T04:18:00;102295;;;5.59;81.84
57250;BME280;43102;52.014;-0.680;2023-03-01T04:19:00;102294;;;5.63;81.85
57250;BME280;43102;52.014;-0.680;2023-03-01T04:20:00;102294;;;5.63;81.85
57250;BME280;43102;52.014;-0.680;2023-03-01T04:21:00;102294;;;5.63;81.85
57250;BME280;43102;52.014;-0.680;2023-03-01T04:22:00;102294;;;5.63;81.85
57250;BME280;43102;52.014;-0.680;2023-03-01T04:23:01;102294;;;5.63;81.85
57250;BME280;43102;52.014;-0.680;2023-03-01T04:24:00;102288;;;5.63;82.08
57250;BME280;43102;52.014;-0.680;2023-03-01T04:25:00;102288;;;5.63;82.08
57250;BME280;43102;52.014;-0.680;2023-03-01T04:26:00;102288;;;5.63;82.08
57250;BME280;43102;52.014;-0.680;2023-03-01T04:27:00;102288;;;5.63;82.08
57250;BME280;43102;52.014;-0.680;2023-03-01T04:28:00;102288;;;5.63;82.08
57250;BME280;43102;52.014;-0.680;2023-03-01T04:29:00;102285;;;5.65;82.14
57250;BME280;43102;52.014;-0.680;2023-03-01T04:30:00;102285;;;5.65;82.14
57250;BME280;43102;52.014;-0.680;2023-03-01T04:31:02;102285;;;5.65;82.14
57250;BME280;43102;52.014;-0.680;2023-03-01T04:32:00;102285;;;5.65;82.14
57250;BME280;43102;52.014;-0.680;2023-03-01T04:33:00;102285;;;5.65;82.14
57250;BME280;43102;52.014;-0.680;2023-03-01T04:34:00;102281;;;5.67;82.34
57250;BME280;43102;52.014;-0.680;2023-03-01T04:35:00;102281;;;5.67;82.34
57250;BME280;43102;52.014;-0.680;2023-03-01T04:36:00;102281;;;5.67;82.34
57250;BME280;43102;52.014;-0.680;2023-03-01T04:37:00;102281;;;5.67;82.34
57250;BME280;43102;52.014;-0.680;2023-03-01T04:38:00;102281;;;5.67;82.34
57250;BME280;43102;52.014;-0.680;2023-03-01T04:39:00;102273;;;5.64;82.71
57250;BME280;43102;52.014;-0.680;2023-03-01T04:40:00;102273;;;5.64;82.71
57250;BME280;43102;52.014;-0.680;2023-03-01T04:41:00;102273;;;5.64;82.71
57250;BME280;43102;52.014;-0.680;2023-03-01T04:42:00;102273;;;5.64;82.71
57250;BME280;43102;52.014;-0.680;2023-03-01T04:43:00;102273;;;5.64;82.71
57250;BME280;43102;52.014;-0.680;2023-03-01T04:44:00;102277;;;5.71;82.67
57250;BME280;43102;52.014;-0.680;2023-03-01T04:45:00;102277;;;5.71;82.67
57250;BME280;43102;52.014;-0.680;2023-03-01T04:46:01;102277;;;5.71;82.67
57250;BME280;43102;52.014;-0.680;2023-03-01T04:47:00;102277;;;5.71;82.67
57250;BME280;43102;52.014;-0.680;2023-03-01T04:48:00;102277;;;5.71;82.67
57250;BME280;43102;52.014;-0.680;2023-03-01T04:49:00;102284;;;5.71;82.94
57250;BME280;43102;52.014;-0.680;2023-03-01T04:50:00;102284;;;5.71;82.94
57250;BME280;43102;52.014;-0.680;2023-03-01T04:51:00;102284;;;5.71;82.94
57250;BME280;43102;52.014;-0.680;2023-03-01T04:52:00;102284;;;5.71;82.94
57250;BME280;43102;52.014;-0.680;2023-03-01T04:53:00;102284;;;5.71;82.94
57250;BME280;43102;52.014;-0.680;2023-03-01T04:54:00;102278;;;5.67;83.25
57250;BME280;43102;52.014;-0.680;2023-03-01T04:55:00;102278;;;5.67;83.25
57250;BME280;43102;52.014;-0.680;2023-03-01T04:56:00;102278;;;5.67;83.25
57250;BME280;43102;52.014;-0.680;2023-03-01T04:57:00;102278;;;5.67;83.25
57250;BME280;43102;52.014;-0.680;2023-03-01T04:58:00;102278;;;5.67;83.25
57250;BME280;43102;52.014;-0.680;2023-03-01T04:59:00;102273;;;5.63;83.53
57250;BME280;43102;52.014;-0.680;2023-03-01T05:00:00;102273;;;5.63;83.53
57250;BME280;43102;52.014;-0.680;2023-03-01T05:01:00;102273;;;5.63;83.53
57250;BME280;43102;52.014;-0.680;2023-03-01T05:02:00;102273;;;5.63;83.53
57250;BME280;43102;52.014;-0.680;2023-03-01T05:03:00;102273;;;5.63;83.53
57250;BME280;43102;52.014;-0.680;2023-03-01T05:04:00;102278;;;5.55;83.72
57250;BME280;43102;52.014;-0.680;2023-03-01T05:05:00;102278;;;5.55;83.72
57250;BME280;43102;52.014;-0.680;2023-03-01T05:06:00;102278;;;5.55;83.72
57250;BME280;43102;52.014;-0.680;2023-03-01T05:07:00;102278;;;5.55;83.72
57250;BME280;43102;52.014;-0.680;2023-03-01T05:08:01;102278;;;5.55;83.72
57250;BME280;43102;52.014;-0.680;2023-03-01T05:09:00;102264;;;5.47;84.01
57250;BME280;43102;52.014;-0.680;2023-03-01T05:10:00;102264;;;5.47;84.01
57250;BME280;43102;52.014;-0.680;2023-03-01T05:11:00;102264;;;5.47;84.01
57250;BME280;43102;52.014;-0.680;2023-03-01T05:12:00;102264;;;5.47;84.01
57250;BME280;43102;52.014;-0.680;2023-03-01T05:13:00;102264;;;5.47;84.01
57250;BME280;43102;52.014;-0.680;2023-03-01T05:14:00;102261;;;5.54;83.73
57250;BME280;43102;52.014;-0.680;2023-03-01T05:15:00;102261;;;5.54;83.73
57250;BME280;43102;52.014;-0.680;2023-03-01T05:16:00;102261;;;5.54;83.73
57250;BME280;43102;52.014;-0.680;2023-03-01T05:17:00;102261;;;5.54;83.73
57250;BME280;43102;52.014;-0.680;2023-03-01T05:18:00;102261;;;5.54;83.73
57250;BME280;43102;52.014;-0.680;2023-03-01T05:19:00;102262;;;5.63;83.65
57250;BME280;43102;52.014;-0.680;2023-03-01T05:20:00;102262;;;5.63;83.65
57250;BME280;43102;52.014;-0.680;2023-03-01T05:21:02;102262;;;5.63;83.65
57250;BME280;43102;52.014;-0.680;2023-03-01T05:22:00;102262;;;5.63;83.65
57250;BME280;43102;52.014;-0.680;2023-03-01T05:23:00;102262;;;5.63;83.65
57250;BME280;43102;52.014;-0.680;2023-03-01T05:24:00;102261;;;5.68;83.55
57250;BME280;43102;52.014;-0.680;2023-03-01T05:25:00;102261;;;5.68;83.55
57250;BME280;43102;52.014;-0.680;2023-03-01T05:26:00;102261;;;5.68;83.55
57250;BME280;43102;52.014;-0.680;2023-03-01T05:27:00;102261;;;5.68;83.55
57250;BME280;43102;52.014;-0.680;2023-03-01T05:28:00;102261;;;5.68;83.55
57250;BME280;43102;52.014;-0.680;2023-03-01T05:29:00;102255;;;5.68;83.91
57250;BME280;43102;52.014;-0.680;2023-03-01T05:30:00;102255;;;5.68;83.91
57250;BME280;43102;52.014;-0.680;2023-03-01T05:31:00;102255;;;5.68;83.91
57250;BME280;43102;52.014;-0.680;2023-03-01T05:32:00;102255;;;5.68;83.91
57250;BME280;43102;52.014;-0.680;2023-03-01T05:33:00;102255;;;5.68;83.91
57250;BME280;43102;52.014;-0.680;2023-03-01T05:34:00;102244;;;5.80;83.56